Time;durP1;ratioP1;P1;durP2;ratioP2;P2;SDS_P1;SDS_P2;PMS_P1;PMS_P2;Temp;Humidity;BMP_temperature;BMP_pressure;BME280_temperature;BME280_humidity;BME280_pressure;Samples;Min_cycle;Max_cycle;Signal;HPM_P1;HPM_P2
2024/01/23 00:01:16;;;;;;;4.90;1.02;;;;;;;9.10;63.18;100820.56;5040647;28;20021;-46
2024/01/23 00:03:41;;;;;;;6.15;0.98;;;;;;;9.07;63.53;100820.72;5045650;28;20063;-46
2024/01/23 00:06:07;;;;;;;6.40;1.85;;;;;;;9.11;63.41;100808.28;5058628;28;20033;-47
2024/01/23 00:08:32;;;;;;;9.90;2.35;;;;;;;9.00;63.51;100814.06;5044960;28;20159;-47
2024/01/23 00:10:57;;;;;;;7.03;1.67;;;;;;;8.88;63.72;100807.69;5045753;28;20033;-48
2024/01/23 00:13:22;;;;;;;4.57;0.67;;;;;;;8.97;63.55;100816.88;5043126;28;20048;-47
2024/01/23 00:15:48;;;;;;;5.27;1.13;;;;;;;8.99;62.71;100815.84;5028018;28;20298;-46
2024/01/23 00:18:14;;;;;;;4.60;0.73;;;;;;;8.98;63.26;100821.19;5043851;28;20286;-46
2024/01/23 00:20:40;;;;;;;5.63;1.27;;;;;;;9.00;63.66;100824.56;5040466;28;20521;-48
2024/01/23 00:23:05;;;;;;;7.93;2.85;;;;;;;8.99;63.08;100822.91;5043579;28;20115;-47
2024/01/23 00:25:31;;;;;;;4.30;0.73;;;;;;;9.01;63.34;100836.75;5044376;28;20029;-47
2024/01/23 00:27:57;;;;;;;4.10;0.47;;;;;;;9.10;63.29;100823.19;5044343;28;20297;-47
2024/01/23 00:30:22;;;;;;;4.00;0.35;;;;;;;9.08;62.80;100832.91;5039852;28;20037;-45
2024/01/23 00:32:47;;;;;;;4.03;0.30;;;;;;;9.13;62.98;100832.69;5048938;28;20616;-43
2024/01/23 00:35:12;;;;;;;4.60;0.70;;;;;;;9.15;62.82;100843.97;5041089;28;20292;-46
2024/01/23 00:37:38;;;;;;;5.22;1.10;;;;;;;9.13;62.74;100856.31;5040055;28;20050;-44
2024/01/23 00:40:04;;;;;;;4.32;0.50;;;;;;;9.13;62.99;100864.19;5041928;28;20036;-46
2024/01/23 00:42:30;;;;;;;4.25;0.43;;;;;;;8.81;64.32;100875.34;5043257;28;20036;-45
2024/01/23 00:44:55;;;;;;;4.47;0.63;;;;;;;8.85;64.89;100876.88;5044875;28;20028;-51
2024/01/23 00:47:21;;;;;;;5.50;1.10;;;;;;;8.77;65.41;100888.69;5043152;28;20032;-47
2024/01/23 00:49:46;;;;;;;7.38;2.45;;;;;;;8.85;66.06;100887.38;5044035;28;20077;-47
2024/01/23 00:52:11;;;;;;;9.07;0.77;;;;;;;8.99;65.56;100885.88;5036621;28;20387;-45
2024/01/23 00:54:37;;;;;;;4.65;0.68;;;;;;;8.99;65.81;100867.50;5048537;28;20283;-44
2024/01/23 00:57:05;;;;;;;5.28;1.02;;;;;;;9.05;65.47;100837.47;5039643;28;20091;-46
2024/01/23 00:59:31;;;;;;;4.38;0.68;;;;;;;8.93;65.71;100834.53;5041312;28;20052;-46
2024/01/23 01:01:56;;;;;;;5.60;1.67;;;;;;;8.94;66.01;100838.84;5043347;28;20054;-45
2024/01/23 01:04:21;;;;;;;14.47;1.90;;;;;;;8.94;65.33;100841.47;5040126;28;20515;-46
2024/01/23 01:06:46;;;;;;;6.30;2.30;;;;;;;8.97;65.17;100835.25;5042160;28;20286;-44
2024/01/23 01:09:12;;;;;;;4.03;1.03;;;;;;;8.92;64.98;100831.97;5041557;28;20807;-45
2024/01/23 01:11:37;;;;;;;3.73;1.07;;;;;;;8.93;64.92;100831.06;5043006;28;20280;-45
2024/01/23 01:14:02;;;;;;;3.97;0.65;;;;;;;8.92;64.90;100845.97;5042629;28;20279;-45
2024/01/23 01:16:28;;;;;;;3.67;0.75;;;;;;;8.93;64.50;100852.06;5042587;28;20049;-46
2024/01/23 01:18:53;;;;;;;4.30;0.93;;;;;;;8.92;64.74;100847.72;5027169;28;20699;-47
2024/01/23 01:21:19;;;;;;;4.75;2.30;;;;;;;8.85;64.41;100847.19;5047292;28;20052;-45
2024/01/23 01:23:44;;;;;;;3.75;0.80;;;;;;;8.84;64.67;100848.09;5041719;28;20090;-46
2024/01/23 01:26:10;;;;;;;3.97;1.00;;;;;;;8.85;64.52;100853.25;5042950;28;20484;-44
2024/01/23 01:28:36;;;;;;;3.45;0.63;;;;;;;8.90;64.64;100860.06;5044028;28;20029;-44
2024/01/23 01:31:02;;;;;;;3.72;0.95;;;;;;;8.72;64.66;100867.06;5043724;28;20353;-46
2024/01/23 01:33:27;;;;;;;5.35;2.25;;;;;;;8.62;64.94;100871.91;5039867;28;20472;-47
2024/01/23 01:35:53;;;;;;;4.13;1.15;;;;;;;8.63;65.25;100876.22;5042185;28;20553;-47
2024/01/23 01:38:19;;;;;;;4.32;1.25;;;;;;;8.62;65.37;100877.16;5040601;28;20033;-45
2024/01/23 01:40:44;;;;;;;3.35;0.47;;;;;;;8.69;65.34;100881.19;5041400;28;20040;-43
2024/01/23 01:43:30;;;;;;;4.00;0.90;;;;;;;8.53;65.93;100884.53;5044429;28;20055;-44
2024/01/23 01:46:04;;;;;;;4.25;1.38;;;;;;;8.57;66.09;100871.25;5039700;28;20022;-45
2024/01/23 01:48:30;;;;;;;3.03;0.35;;;;;;;8.47;65.43;100876.91;5043809;28;20043;-44
2024/01/23 01:50:55;;;;;;;3.40;0.73;;;;;;;8.65;65.34;100877.00;5043960;28;20446;-47
2024/01/23 01:53:20;;;;;;;8.45;4.68;;;;;;;8.58;65.22;100879.06;5044520;28;20037;-46
2024/01/23 01:55:46;;;;;;;2.97;0.30;;;;;;;8.64;64.77;100860.41;5046635;28;20037;-46
2024/01/23 01:58:14;;;;;;;3.80;0.90;;;;;;;8.66;64.76;100855.09;5047032;28;20079;-46
2024/01/23 02:00:40;;;;;;;4.30;0.85;;;;;;;8.57;64.53;100860.75;5047172;28;20032;-46
2024/01/23 02:03:05;;;;;;;4.07;1.02;;;;;;;8.66;64.45;100865.59;5043326;28;20041;-45
2024/01/23 02:05:30;;;;;;;3.83;0.80;;;;;;;8.76;64.04;100858.13;5044649;28;20021;-46
2024/01/23 02:07:56;;;;;;;3.27;0.40;;;;;;;8.71;63.65;100860.94;5045902;28;20033;-46
2024/01/23 02:10:22;;;;;;;3.80;0.68;;;;;;;8.76;63.41;100864.22;5046708;28;20315;-46
2024/01/23 02:12:48;;;;;;;3.90;0.68;;;;;;;8.83;63.33;100867.41;5044971;28;20040;-47
2024/01/23 02:15:13;;;;;;;4.22;0.98;;;;;;;8.61;63.68;100859.72;5045241;28;20399;-48
2024/01/23 02:17:39;;;;;;;5.55;1.30;;;;;;;8.61;63.61;100875.44;5045967;28;20043;-45
2024/01/23 02:20:05;;;;;;;4.03;0.55;;;;;;;8.46;63.82;100875.22;5045047;28;20036;-46
2024/01/23 02:22:30;;;;;;;7.78;1.60;;;;;;;8.58;63.93;100865.09;5046888;28;20063;-46
2024/01/23 02:24:56;;;;;;;4.90;1.17;;;;;;;8.53;63.76;100862.69;5041749;28;20071;-44
2024/01/23 02:27:21;;;;;;;4.47;0.98;;;;;;;8.53;63.53;100863.56;5044433;28;20109;-47
2024/01/23 02:29:46;;;;;;;3.67;0.43;;;;;;;8.58;63.48;100862.47;5049243;28;20060;-47
2024/01/23 02:32:12;;;;;;;9.18;4.45;;;;;;;8.56;63.17;100856.44;5043577;28;20502;-45
2024/01/23 02:34:37;;;;;;;3.78;0.38;;;;;;;8.54;63.21;100860.00;5028027;28;20040;-47
2024/01/23 02:37:02;;;;;;;4.43;0.70;;;;;;;8.45;63.19;100859.56;5044052;28;20036;-46
2024/01/23 02:39:28;;;;;;;10.05;0.77;;;;;;;8.32;63.48;100867.13;5044341;28;20037;-44
2024/01/23 02:41:53;;;;;;;4.60;0.88;;;;;;;8.44;63.06;100869.19;5046684;28;20025;-45
2024/01/23 02:44:19;;;;;;;4.10;0.47;;;;;;;8.47;62.87;100870.84;5046529;28;20254;-46
2024/01/23 02:46:44;;;;;;;4.80;0.93;;;;;;;8.44;62.76;100873.59;5043427;28;20033;-44
2024/01/23 02:49:09;;;;;;;4.40;0.80;;;;;;;8.33;62.65;100876.72;5046260;28;20133;-46
2024/01/23 02:51:34;;;;;;;4.60;0.98;;;;;;;8.32;63.07;100870.59;5045728;28;20041;-43
2024/01/23 02:54:00;;;;;;;4.30;0.73;;;;;;;8.32;62.94;100882.88;5044558;28;20029;-44
2024/01/23 02:56:26;;;;;;;4.72;0.90;;;;;;;8.20;62.86;100874.66;5044308;28;20333;-47
2024/01/23 02:58:51;;;;;;;4.57;0.85;;;;;;;8.16;63.04;100874.88;5047216;28;20037;-44
2024/01/23 03:01:17;;;;;;;4.40;0.77;;;;;;;8.16;63.10;100886.19;5046224;28;20041;-44
2024/01/23 03:03:42;;;;;;;6.32;1.85;;;;;;;8.26;63.42;100872.66;5048798;28;20032;-44
2024/01/23 03:06:07;;;;;;;4.20;0.45;;;;;;;8.23;63.43;100873.66;5042077;28;20067;-44
2024/01/23 03:08:32;;;;;;;4.63;0.70;;;;;;;8.32;63.13;100878.47;5046296;28;20107;-45
2024/01/23 03:10:58;;;;;;;5.05;1.05;;;;;;;8.26;63.12;100876.13;5043152;28;20032;-43
2024/01/23 03:13:23;;;;;;;5.67;1.37;;;;;;;8.12;63.76;100870.69;5050103;28;20067;-44
2024/01/23 03:15:49;;;;;;;4.95;1.02;;;;;;;8.15;63.69;100863.53;5046195;28;20299;-46
2024/01/23 03:18:14;;;;;;;8.82;4.43;;;;;;;8.20;63.56;100872.03;5046967;28;20518;-43
2024/01/23 03:20:40;;;;;;;4.63;0.65;;;;;;;8.22;63.59;100883.31;5043501;28;20076;-44
2024/01/23 03:23:05;;;;;;;4.45;0.65;;;;;;;8.23;63.26;100900.72;5040424;28;20032;-45
2024/01/23 03:25:30;;;;;;;4.63;0.75;;;;;;;8.22;63.54;100891.16;5044885;28;20028;-48
2024/01/23 03:27:56;;;;;;;5.63;1.50;;;;;;;8.29;63.29;100893.50;5045936;28;20175;-45
2024/01/23 03:30:34;;;;;;;5.78;2.15;;;;;;;8.13;63.60;100899.44;5045134;28;20085;-44
2024/01/23 03:33:00;;;;;;;3.78;0.40;;;;;;;8.30;63.26;100892.56;5043975;28;20048;-46
2024/01/23 03:35:25;;;;;;;4.78;1.10;;;;;;;8.35;63.11;100899.31;5045037;28;20068;-43
2024/01/23 03:37:51;;;;;;;4.53;0.88;;;;;;;8.26;63.55;100912.84;5045622;28;20078;-45
2024/01/23 03:40:17;;;;;;;4.72;0.95;;;;;;;8.28;63.64;100907.53;5047159;28;20434;-46
2024/01/23 03:42:42;;;;;;;4.47;0.80;;;;;;;8.34;63.71;100909.88;5044303;28;20464;-43
2024/01/23 03:45:08;;;;;;;4.70;0.77;;;;;;;8.30;63.78;100908.31;5043068;28;20032;-45
2024/01/23 03:47:34;;;;;;;5.15;1.02;;;;;;;8.30;63.72;100909.16;5047403;28;20047;-45
2024/01/23 03:49:59;;;;;;;4.53;0.85;;;;;;;8.31;63.78;100915.25;5043431;28;20029;-47
2024/01/23 03:52:24;;;;;;;6.80;2.20;;;;;;;8.39;63.45;100913.97;5040381;28;20032;-47
2024/01/23 03:54:50;;;;;;;4.63;0.88;;;;;;;8.43;63.47;100919.94;5038921;28;20039;-47
2024/01/23 03:57:15;;;;;;;3.92;0.32;;;;;;;8.50;63.35;100910.03;5044772;28;20056;-46
2024/01/23 03:59:44;;;;;;;6.05;1.60;;;;;;;8.47;63.31;100918.03;5047329;28;20029;-46
2024/01/23 04:02:09;;;;;;;5.18;4.40;;;;;;;8.37;63.61;100910.56;5040604;28;20822;-46
2024/01/23 04:04:35;;;;;;;4.60;2.67;;;;;;;8.37;63.58;100909.75;5049619;28;20029;-47
2024/01/23 04:07:02;;;;;;;7.72;7.03;;;;;;;8.32;63.84;100916.94;5041274;28;20091;-48
2024/01/23 04:09:27;;;;;;;7.40;6.53;;;;;;;8.34;63.75;100915.94;5044660;28;20049;-47
2024/01/23 04:11:52;;;;;;;8.02;6.22;;;;;;;8.40;63.64;100914.81;5037575;28;20446;-46
2024/01/23 04:14:17;;;;;;;0.68;0.68;;;;;;;8.45;63.52;100915.47;5041728;28;20029;-47
2024/01/23 04:16:43;;;;;;;1.45;0.73;;;;;;;8.46;63.54;100922.41;5025908;28;20042;-46
2024/01/23 04:19:08;;;;;;;0.10;0.10;;;;;;;8.47;63.59;100911.00;5044549;28;20051;-45
2024/01/23 04:21:33;;;;;;;52.80;29.13;;;;;;;8.38;63.87;100919.31;5041503;28;20396;-48
2024/01/23 04:23:59;;;;;;;270.13;178.23;;;;;;;8.47;63.25;100910.16;5040807;28;20047;-47
2024/01/23 04:26:24;;;;;;;828.35;425.35;;;;;;;8.42;63.39;100926.09;5044977;28;20749;-47
2024/01/23 04:28:49;;;;;;;1999.90;999.90;;;;;;;8.42;63.15;100944.44;5038418;28;20056;-47
2024/01/23 04:31:15;;;;;;;1999.90;919.75;;;;;;;8.49;63.04;100947.66;5042968;28;20364;-46
2024/01/23 04:33:41;;;;;;;1999.90;999.90;;;;;;;8.40;63.23;100954.16;5027863;28;20057;-46
2024/01/23 04:36:06;;;;;;;1751.22;675.63;;;;;;;8.47;63.41;100957.38;5043684;28;20060;-47
2024/01/23 04:38:31;;;;;;;1444.05;574.80;;;;;;;8.47;63.24;100952.97;5046697;28;20108;-46
2024/01/23 04:40:57;;;;;;;463.10;266.80;;;;;;;8.49;63.17;100956.41;5043992;28;20048;-45
2024/01/23 04:43:22;;;;;;;1028.65;483.13;;;;;;;8.48;63.01;100957.31;5048492;28;20041;-44
2024/01/23 04:45:47;;;;;;;1999.90;849.85;;;;;;;8.44;63.01;100968.84;5048601;28;20039;-46
2024/01/23 04:48:12;;;;;;;1999.90;987.22;;;;;;;8.43;63.24;100967.13;5041623;28;20403;-43
2024/01/23 04:50:38;;;;;;;1999.90;999.90;;;;;;;8.42;63.09;100986.41;5027837;28;20040;-48
2024/01/23 04:53:03;;;;;;;1999.90;881.70;;;;;;;8.40;63.25;100980.38;5045153;28;20123;-46
2024/01/23 04:55:28;;;;;;;1999.90;999.90;;;;;;;8.39;63.65;100994.44;5044416;28;20361;-44
2024/01/23 04:57:53;;;;;;;1999.90;985.35;;;;;;;8.44;62.94;100997.69;5043590;28;20029;-45
2024/01/23 05:00:19;;;;;;;1999.90;999.90;;;;;;;8.48;62.75;100991.41;5035423;28;20036;-45
2024/01/23 05:02:44;;;;;;;1999.90;999.90;;;;;;;8.60;62.53;100994.41;5039609;28;20030;-44
2024/01/23 05:05:10;;;;;;;1999.90;999.90;;;;;;;8.55;62.66;100997.25;5041055;28;20071;-44
2024/01/23 05:07:35;;;;;;;1999.90;999.90;;;;;;;8.52;62.96;101013.97;5043519;28;20263;-44
2024/01/23 05:10:04;;;;;;;1999.90;999.90;;;;;;;8.65;63.05;101003.75;5044622;28;20479;-46
2024/01/23 05:12:29;;;;;;;1999.90;999.90;;;;;;;8.67;62.77;101006.34;5042780;28;20110;-45
2024/01/23 05:14:54;;;;;;;1999.90;999.90;;;;;;;8.65;62.51;101016.03;5043048;28;20051;-45
2024/01/23 05:17:19;;;;;;;1999.90;957.17;;;;;;;8.47;62.72;101025.56;5023698;28;20041;-45
2024/01/23 05:19:45;;;;;;;689.28;344.42;;;;;;;8.47;62.38;101036.88;5047500;28;20033;-45
2024/01/23 05:22:10;;;;;;;1999.90;999.90;;;;;;;8.49;62.38;101029.84;5038258;28;20037;-46
2024/01/23 05:24:35;;;;;;;1999.90;999.90;;;;;;;8.47;62.34;101036.88;5045955;28;20119;-45
2024/01/23 05:27:01;;;;;;;1999.90;999.90;;;;;;;8.44;62.20;101037.03;5046884;28;20487;-46
2024/01/23 05:29:26;;;;;;;1597.97;487.45;;;;;;;8.59;62.02;101035.53;5034984;28;20039;-46
2024/01/23 05:31:52;;;;;;;6.78;1.95;;;;;;;8.59;61.83;101047.78;5036537;28;20029;-46
2024/01/23 05:34:17;;;;;;;5.60;0.75;;;;;;;8.72;61.90;101041.06;5045042;28;20480;-47
2024/01/23 05:36:43;;;;;;;5.53;0.70;;;;;;;8.66;62.02;101062.34;5045631;28;20081;-47
2024/01/23 05:39:08;;;;;;;5.78;0.75;;;;;;;8.71;61.90;101052.47;5046802;28;20075;-47
2024/01/23 05:41:34;;;;;;;6.03;0.90;;;;;;;8.62;61.88;101058.97;5042435;28;20044;-47
2024/01/23 05:43:59;;;;;;;8.05;2.22;;;;;;;8.51;62.25;101074.34;5047412;28;20255;-47
2024/01/23 05:46:24;;;;;;;7.25;2.15;;;;;;;8.44;61.94;101093.88;5046882;28;20214;-48
2024/01/23 05:48:50;;;;;;;7.07;1.35;;;;;;;8.44;62.30;101094.72;5028648;28;20037;-47
2024/01/23 05:51:15;;;;;;;7.10;1.67;;;;;;;8.54;61.85;101111.81;5048659;28;20048;-46
2024/01/23 05:53:40;;;;;;;1196.30;439.58;;;;;;;8.49;61.81;101098.03;5047229;28;20625;-49
2024/01/23 05:56:06;;;;;;;1999.90;998.72;;;;;;;8.34;62.13;101128.34;5044078;28;20032;-47
2024/01/23 05:58:31;;;;;;;1999.90;995.10;;;;;;;8.39;62.05;101122.91;5044593;28;20032;-47
2024/01/23 06:00:57;;;;;;;1999.90;987.47;;;;;;;8.52;61.73;101124.13;5037441;28;20040;-45
2024/01/23 06:03:22;;;;;;;1999.90;999.90;;;;;;;8.50;61.35;101125.97;5045376;28;20097;-46
2024/01/23 06:05:47;;;;;;;5.40;1.45;;;;;;;8.44;61.65;101126.19;5043605;28;20071;-45
2024/01/23 06:08:13;;;;;;;6.75;1.75;;;;;;;8.47;62.07;101130.47;5051449;28;20040;-47
2024/01/23 06:10:38;;;;;;;4.75;0.55;;;;;;;8.51;61.62;101130.28;5050745;28;20040;-46
2024/01/23 06:13:04;;;;;;;5.15;0.73;;;;;;;8.51;61.98;101134.66;5045535;28;20056;-46
2024/01/23 06:15:29;;;;;;;1802.95;585.40;;;;;;;8.43;62.07;101124.47;5064706;28;20029;-45
2024/01/23 06:17:54;;;;;;;1999.90;999.90;;;;;;;8.51;61.40;101130.28;5049734;28;20055;-46
2024/01/23 06:20:20;;;;;;;6.53;1.40;;;;;;;8.59;61.51;101134.34;5048141;28;20025;-47
2024/01/23 06:22:45;;;;;;;6.15;1.08;;;;;;;8.60;61.65;101141.28;5065773;28;20064;-46
2024/01/23 06:25:16;;;;;;;6.13;1.17;;;;;;;8.47;62.16;101138.34;5046412;28;20075;-44
2024/01/23 06:27:44;;;;;;;6.38;1.30;;;;;;;8.54;61.71;101138.03;5047359;28;20017;-44
2024/01/23 06:30:11;;;;;;;5.93;1.13;;;;;;;8.36;62.13;101149.28;5047687;28;20064;-45
2024/01/23 06:32:42;;;;;;;1999.90;993.25;;;;;;;8.47;61.91;101157.53;5048472;28;20036;-44
2024/01/23 06:35:09;;;;;;;1999.90;999.90;;;;;;;8.48;62.01;101159.28;5047666;28;20065;-44
2024/01/23 06:37:34;;;;;;;1192.43;454.23;;;;;;;8.45;62.03;101156.75;5040451;28;20123;-47
2024/01/23 06:40:00;;;;;;;5.70;1.20;;;;;;;8.38;61.85;101168.41;5043722;28;20155;-47
2024/01/23 06:42:25;;;;;;;5.47;0.68;;;;;;;8.43;61.66;101161.19;5032994;28;20124;-45
2024/01/23 06:44:50;;;;;;;6.13;1.13;;;;;;;8.42;61.80;101164.72;5042816;28;20104;-45
2024/01/23 06:47:17;;;;;;;7.32;1.60;;;;;;;8.33;61.96;101146.78;5032233;28;20704;-44
2024/01/23 06:49:42;;;;;;;5.78;1.25;;;;;;;8.30;61.88;101166.13;5049995;28;20071;-45
2024/01/23 06:52:10;;;;;;;8.18;1.85;;;;;;;8.34;62.28;101158.97;5049135;28;20915;-47
2024/01/23 06:54:36;;;;;;;6.18;1.33;;;;;;;8.39;61.95;101164.88;5051543;28;20033;-47
2024/01/23 06:57:01;;;;;;;5.37;0.57;;;;;;;8.44;61.42;101162.06;5050748;28;20179;-46
2024/01/23 06:59:29;;;;;;;1932.68;729.22;;;;;;;8.44;61.67;101154.19;5046029;28;20291;-47
2024/01/23 07:01:55;;;;;;;1999.90;999.90;;;;;;;8.44;61.54;101172.56;5050110;28;20036;-47
2024/01/23 07:04:20;;;;;;;7.78;1.90;;;;;;;8.57;61.20;101175.53;5041029;28;20029;-47
2024/01/23 07:06:45;;;;;;;1127.28;498.42;;;;;;;8.50;61.13;101188.91;5065232;28;20033;-46
2024/01/23 07:09:11;;;;;;;741.70;415.95;;;;;;;8.45;61.27;101209.19;5050703;28;20063;-48
2024/01/23 07:11:40;;;;;;;1299.63;574.78;;;;;;;8.50;61.58;101194.16;5051030;28;20106;-47
2024/01/23 07:14:05;;;;;;;5.88;1.60;;;;;;;8.31;62.23;101208.91;5051745;28;20025;-48
2024/01/23 07:16:31;;;;;;;551.95;352.45;;;;;;;8.53;61.56;101208.91;5052282;28;20074;-47
2024/01/23 07:18:56;;;;;;;852.97;446.33;;;;;;;8.49;61.73;101208.19;5050374;28;20033;-44
2024/01/23 07:21:21;;;;;;;569.55;356.83;;;;;;;8.51;61.70;101208.97;5054022;28;20040;-45
2024/01/23 07:23:47;;;;;;;694.00;393.88;;;;;;;8.48;61.77;101211.72;5052392;28;20029;-46
2024/01/23 07:26:12;;;;;;;746.20;417.17;;;;;;;8.58;61.77;101222.69;5051608;28;20062;-46
2024/01/23 07:28:39;;;;;;;813.03;441.65;;;;;;;8.31;62.54;101229.88;5048851;28;20496;-47
2024/01/23 07:31:04;;;;;;;618.03;374.50;;;;;;;8.61;61.69;101232.19;5047788;28;20040;-46
2024/01/23 07:33:29;;;;;;;919.15;478.35;;;;;;;8.53;61.72;101225.50;5054755;28;20028;-45
2024/01/23 07:35:55;;;;;;;564.03;382.27;;;;;;;8.50;61.70;101233.50;5049534;28;20450;-45
2024/01/23 07:38:20;;;;;;;1699.70;674.33;;;;;;;8.47;61.91;101233.59;5049810;28;20036;-44
2024/01/23 07:40:45;;;;;;;1999.90;820.97;;;;;;;8.47;61.93;101246.69;5048325;28;20039;-46
2024/01/23 07:43:11;;;;;;;5.40;0.98;;;;;;;8.68;61.43;101224.00;5048826;28;20035;-46
2024/01/23 07:45:36;;;;;;;5.82;1.20;;;;;;;8.51;61.92;101237.84;5048019;28;20028;-44
2024/01/23 07:48:01;;;;;;;4.80;0.53;;;;;;;8.68;61.95;101226.63;5050623;28;20051;-45
2024/01/23 07:50:29;;;;;;;1969.18;744.53;;;;;;;8.74;61.61;101228.13;5044573;28;20302;-44
2024/01/23 07:52:55;;;;;;;1999.90;999.90;;;;;;;8.63;61.79;101230.38;5048074;28;20179;-44
2024/01/23 07:55:22;;;;;;;1999.90;999.90;;;;;;;8.75;61.68;101250.00;5045779;28;20037;-44
2024/01/23 07:57:47;;;;;;;1999.90;999.90;;;;;;;8.72;61.62;101239.63;5042300;28;20083;-45
2024/01/23 08:00:17;;;;;;;1819.35;564.20;;;;;;;8.67;61.79;101247.69;5051095;28;20404;-45
2024/01/23 08:02:42;;;;;;;1999.90;999.90;;;;;;;8.62;61.80;101247.00;5046960;28;20044;-44
2024/01/23 08:05:08;;;;;;;1999.90;999.90;;;;;;;8.65;61.91;101244.28;5045696;28;20028;-46
2024/01/23 08:07:34;;;;;;;1999.90;999.90;;;;;;;8.85;61.07;101241.66;5046533;28;20698;-39
2024/01/23 08:09:59;;;;;;;1999.90;999.90;;;;;;;8.89;61.03;101237.13;5045546;28;20037;-47
2024/01/23 08:12:24;;;;;;;1999.90;872.28;;;;;;;8.94;61.25;101234.31;5047914;28;20033;-46
2024/01/23 08:14:50;;;;;;;1225.75;563.63;;;;;;;8.94;60.93;101242.19;5044063;28;20033;-47
2024/01/23 08:17:15;;;;;;;945.85;488.80;;;;;;;9.02;60.93;101252.34;5026116;28;20119;-45
2024/01/23 08:19:40;;;;;;;1059.13;523.38;;;;;;;8.96;60.91;101248.22;5043520;28;20087;-45
2024/01/23 08:22:07;;;;;;;8.82;6.32;;;;;;;8.95;60.73;101249.97;5049310;28;20075;-45
2024/01/23 08:24:32;;;;;;;700.05;234.45;;;;;;;8.94;61.08;101252.69;5027560;28;20578;-45
2024/01/23 08:26:58;;;;;;;9.13;7.65;;;;;;;8.93;61.19;101254.44;5047936;28;20052;-45
2024/01/23 08:29:23;;;;;;;7.90;6.20;;;;;;;8.85;59.91;101267.06;5045984;28;20063;-46
2024/01/23 08:31:48;;;;;;;20.55;8.48;;;;;;;8.97;60.16;101263.06;5044103;28;20037;-47
2024/01/23 08:34:14;;;;;;;1999.90;999.90;;;;;;;8.96;59.97;101263.97;5049676;28;20039;-45
2024/01/23 08:36:39;;;;;;;813.45;499.00;;;;;;;8.89;59.98;101249.41;5048865;28;20037;-45
2024/01/23 08:39:04;;;;;;;1999.90;974.60;;;;;;;9.17;59.87;101266.56;5048529;28;20041;-45
2024/01/23 08:41:30;;;;;;;1999.90;999.90;;;;;;;9.13;59.95;101277.25;5044963;28;20086;-45
2024/01/23 08:43:55;;;;;;;7.88;7.07;;;;;;;9.16;59.83;101271.00;5049366;28;20039;-38
2024/01/23 08:46:21;;;;;;;7.10;5.90;;;;;;;9.30;59.67;101279.13;5045107;28;20055;-40
2024/01/23 08:48:47;;;;;;;647.25;334.98;;;;;;;9.16;59.70;101281.50;5047210;28;20110;-48
2024/01/23 08:51:13;;;;;;;1999.90;996.75;;;;;;;9.18;59.76;101278.78;5042112;28;20063;-48
2024/01/23 08:53:38;;;;;;;1999.90;997.90;;;;;;;9.09;59.76;101286.16;5043786;28;20071;-44
2024/01/23 08:56:03;;;;;;;1999.90;999.90;;;;;;;9.14;59.94;101272.81;5040645;28;20055;-45
2024/01/23 08:58:29;;;;;;;1999.90;999.90;;;;;;;9.18;59.12;101300.66;5044993;28;20044;-45
2024/01/23 09:00:54;;;;;;;7.72;5.63;;;;;;;9.32;59.53;101291.34;5048543;28;20040;-46
2024/01/23 09:03:22;;;;;;;8.23;5.75;;;;;;;9.34;59.36;101310.50;5032222;28;20024;-47
2024/01/23 09:05:48;;;;;;;8.05;6.07;;;;;;;9.49;59.40;101314.22;5046354;28;20032;-45
2024/01/23 09:08:13;;;;;;;849.20;264.50;;;;;;;9.40;59.56;101311.09;5049666;28;20486;-45
2024/01/23 09:10:38;;;;;;;7.85;4.63;;;;;;;9.18;59.46;101305.03;5046081;28;20048;-45
2024/01/23 09:13:09;;;;;;;6.28;4.43;;;;;;;9.38;59.51;101312.94;5046478;28;20073;-45
2024/01/23 09:15:35;;;;;;;535.97;201.43;;;;;;;9.34;59.53;101295.59;5047332;28;20127;-46
2024/01/23 09:18:01;;;;;;;1999.90;999.90;;;;;;;9.32;59.43;101313.19;5046018;28;20057;-47
2024/01/23 09:20:26;;;;;;;9.10;5.28;;;;;;;9.19;59.15;101333.88;5048232;28;20383;-47
2024/01/23 09:22:51;;;;;;;1422.63;456.33;;;;;;;9.32;59.12;101320.22;5041025;28;20103;-43
2024/01/23 09:25:17;;;;;;;1999.90;999.90;;;;;;;9.46;58.88;101384.34;5047888;28;20029;-46
2024/01/23 09:27:43;;;;;;;10.25;5.60;;;;;;;9.37;58.67;101353.25;5048158;28;20479;-46
2024/01/23 09:30:09;;;;;;;9.88;6.55;;;;;;;9.28;59.14;101348.41;5043879;28;20044;-44
2024/01/23 09:32:34;;;;;;;1999.90;999.90;;;;;;;9.37;59.42;101348.00;5046019;28;20400;-43
2024/01/23 09:34:59;;;;;;;13.52;6.85;;;;;;;9.55;58.97;101358.63;5049767;28;20522;-44
2024/01/23 09:37:25;;;;;;;12.13;7.53;;;;;;;9.64;58.41;101357.38;5053696;28;20024;-47
2024/01/23 09:39:52;;;;;;;13.27;8.00;;;;;;;9.20;59.02;101369.72;5044897;28;20276;-48
2024/01/23 09:42:21;;;;;;;9.60;6.72;;;;;;;9.72;58.51;101361.38;5047733;28;20290;-48
2024/01/23 09:44:47;;;;;;;11.07;7.15;;;;;;;9.50;58.85;101363.22;5047842;28;20119;-47
2024/01/23 09:47:12;;;;;;;13.15;7.03;;;;;;;9.49;58.68;101379.91;5047210;28;20022;-48
2024/01/23 09:49:38;;;;;;;10.65;6.75;;;;;;;9.67;58.87;101379.09;5041370;28;20079;-46
2024/01/23 09:52:04;;;;;;;8.93;4.67;;;;;;;9.59;59.05;101386.47;5018641;28;20048;-47
2024/01/23 09:54:31;;;;;;;13.70;5.65;;;;;;;9.51;58.58;101375.44;5035695;28;20800;-47
2024/01/23 09:56:58;;;;;;;9.98;7.63;;;;;;;9.51;59.22;101381.56;5041832;28;20083;-47
2024/01/23 09:59:24;;;;;;;9.60;5.55;;;;;;;9.28;59.06;101385.16;5041982;28;20558;-44
2024/01/23 10:01:49;;;;;;;8.52;4.80;;;;;;;9.52;58.79;101387.66;5045543;28;20029;-46
2024/01/23 10:04:18;;;;;;;7.97;3.58;;;;;;;9.57;59.06;101375.19;5043164;28;20116;-46
2024/01/23 10:06:43;;;;;;;8.48;4.43;;;;;;;9.45;58.99;101387.91;5044518;28;20112;-47
2024/01/23 10:09:09;;;;;;;13.52;6.25;;;;;;;9.29;59.10;101386.88;5043313;28;20123;-47
2024/01/23 10:11:35;;;;;;;8.90;5.88;;;;;;;9.67;59.20;101380.91;5049744;28;20041;-46
2024/01/23 10:14:02;;;;;;;10.07;6.93;;;;;;;9.64;58.85;101392.38;5030951;28;20028;-46
2024/01/23 10:16:27;;;;;;;8.93;5.55;;;;;;;9.74;58.80;101377.94;5049239;28;20033;-46
2024/01/23 10:18:53;;;;;;;9.70;5.38;;;;;;;9.64;59.05;101395.00;5051479;28;20050;-45
2024/01/23 10:21:20;;;;;;;15.20;6.93;;;;;;;9.65;59.24;101409.84;5046698;28;20025;-45
2024/01/23 10:23:48;;;;;;;8.95;4.80;;;;;;;9.55;59.07;101403.28;5048171;28;20484;-46
2024/01/23 10:26:14;;;;;;;11.32;5.25;;;;;;;9.75;59.22;101403.28;5048912;28;20550;-45
2024/01/23 10:28:42;;;;;;;12.95;6.57;;;;;;;9.72;59.24;101415.69;5036200;28;20032;-46
2024/01/23 10:31:07;;;;;;;10.18;5.47;;;;;;;9.67;59.24;101392.25;5014903;28;20132;-46
2024/01/23 10:33:33;;;;;;;16.10;6.60;;;;;;;9.57;59.26;101401.47;5062323;28;20121;-44
2024/01/23 10:35:59;;;;;;;13.73;4.80;;;;;;;9.77;59.27;101413.72;5044575;28;20044;-45
2024/01/23 10:38:25;;;;;;;15.45;7.68;;;;;;;9.73;59.09;101422.66;5042840;28;20032;-45
2024/01/23 10:40:51;;;;;;;11.80;5.95;;;;;;;9.72;59.09;101427.06;5012409;28;20041;-45
2024/01/23 10:43:17;;;;;;;16.73;7.40;;;;;;;9.71;59.07;101435.88;5044682;28;20045;-47
2024/01/23 10:45:45;;;;;;;12.35;6.03;;;;;;;9.75;59.05;101424.31;5040083;28;20029;-46
2024/01/23 10:48:10;;;;;;;11.52;9.10;;;;;;;9.80;58.71;101442.50;5039791;28;20115;-46
2024/01/23 10:50:36;;;;;;;24.15;5.85;;;;;;;9.94;58.59;101435.78;5038362;28;20029;-46
2024/01/23 10:53:04;;;;;;;11.85;9.10;;;;;;;10.03;58.39;101436.25;5045381;28;20037;-47
2024/01/23 10:55:32;;;;;;;9.52;5.95;;;;;;;9.99;58.21;101442.56;5046129;28;20044;-47
2024/01/23 10:58:02;;;;;;;10.48;8.13;;;;;;;9.91;58.42;101437.63;5045451;28;20026;-45
2024/01/23 11:00:27;;;;;;;9.23;5.22;;;;;;;10.03;58.33;101438.88;5041249;28;20052;-48
2024/01/23 11:02:57;;;;;;;16.17;4.57;;;;;;;9.99;58.99;101460.97;5046427;28;20457;-46
2024/01/23 11:05:30;;;;;;;13.20;9.63;;;;;;;9.98;59.69;101447.88;5039625;28;20040;-48
2024/01/23 11:08:01;;;;;;;9.80;6.38;;;;;;;9.91;60.40;101463.91;5039067;28;20043;-40
2024/01/23 11:10:39;;;;;;;12.55;5.90;;;;;;;10.05;59.94;101465.97;5044667;28;20033;-39
2024/01/23 11:13:20;;;;;;;10.40;6.20;;;;;;;9.97;60.00;101493.50;5045476;28;20036;-39
2024/01/23 11:15:47;;;;;;;8.77;5.30;;;;;;;10.01;59.89;101490.66;5045035;28;20095;-40